createdAt,value
2023-01-19T00:00:31.863Z,99955.44
2023-01-19T00:02:58.846Z,99939.41
2023-01-19T00:05:25.658Z,99954.69
2023-01-19T00:07:52.547Z,99960.03
2023-01-19T00:10:19.383Z,99962.72
2023-01-19T00:12:46.280Z,99966.13
2023-01-19T00:15:13.753Z,99958.06
2023-01-19T00:17:41.210Z,99965.78
2023-01-19T00:20:09.782Z,99975.25
2023-01-19T00:22:36.609Z,99967.00
2023-01-19T00:25:03.847Z,99974.72
2023-01-19T00:27:35.007Z,99985.78
2023-01-19T00:30:02.401Z,99976.47
2023-01-19T00:32:29.220Z,99987.69
2023-01-19T00:34:56.029Z,99987.78
2023-01-19T00:37:22.868Z,99998.00
2023-01-19T00:39:49.648Z,100002.13
2023-01-19T00:42:34.734Z,100005.53
2023-01-19T00:45:01.538Z,100018.97
2023-01-19T00:47:28.368Z,100024.81
2023-01-19T00:49:55.305Z,100041.28
2023-01-19T00:52:22.109Z,100034.44
2023-01-19T00:54:48.931Z,100044.38
2023-01-19T00:57:16.327Z,100040.22
2023-01-19T00:59:43.414Z,100046.56
2023-01-19T01:02:11.719Z,100042.44
2023-01-19T01:04:38.666Z,100059.06
2023-01-19T01:07:05.463Z,100044.00
2023-01-19T01:09:32.316Z,100058.75
2023-01-19T01:11:59.122Z,100046.25
2023-01-19T01:14:26.756Z,100061.78
2023-01-19T01:16:53.681Z,100061.88
2023-01-19T01:19:21.492Z,100072.09
2023-01-19T01:21:48.345Z,100076.22
2023-01-19T01:24:15.165Z,100097.28
2023-01-19T01:26:41.979Z,100089.94
2023-01-19T01:29:08.854Z,100089.22
2023-01-19T01:31:35.685Z,100095.72
2023-01-19T01:34:02.586Z,100106.75
2023-01-19T01:36:32.245Z,100109.44
2023-01-19T01:39:00.134Z,100110.38
2023-01-19T01:41:27.646Z,100100.25
2023-01-19T01:43:58.544Z,100112.03
2023-01-19T01:46:26.697Z,100115.41
2023-01-19T01:49:06.245Z,100121.13
2023-01-19T01:51:44.408Z,100120.38
2023-01-19T01:54:18.172Z,100127.19
2023-01-19T01:56:49.502Z,100134.03
2023-01-19T01:59:39.535Z,100138.78
2023-01-19T02:02:45.889Z,100134.03
2023-01-19T02:05:16.185Z,100148.19
2023-01-19T02:08:04.409Z,100152.41
2023-01-19T02:10:50.062Z,100150.84
2023-01-19T02:13:22.717Z,100144.75
2023-01-19T02:15:54.388Z,100140.91
2023-01-19T02:18:24.247Z,100144.75
2023-01-19T02:20:56.103Z,100135.56
2023-01-19T02:23:41.244Z,100146.50
2023-01-19T02:26:09.718Z,100136.97
2023-01-19T02:28:39.061Z,100133.66
2023-01-19T02:31:06.446Z,100123.22
2023-01-19T02:33:33.345Z,100142.06
2023-01-19T02:36:00.349Z,100146.69
2023-01-19T02:38:27.670Z,100148.38
2023-01-19T02:40:58.208Z,100148.75
2023-01-19T02:43:25.145Z,100152.72
2023-01-19T02:45:51.991Z,100158.16
2023-01-19T02:48:19.280Z,100154.28
2023-01-19T02:50:49.308Z,100161.47
2023-01-19T02:54:00.847Z,100167.75
2023-01-19T02:56:43.836Z,100171.50
2023-01-19T02:59:47.891Z,100174.44
2023-01-19T03:02:29.655Z,100182.53
2023-01-19T03:05:14.006Z,100187.94
2023-01-19T03:07:52.767Z,100183.72
2023-01-19T03:10:41.115Z,100192.19
2023-01-19T03:13:19.183Z,100196.31
2023-01-19T03:15:49.006Z,100194.31
2023-01-19T03:18:18.905Z,100190.16
2023-01-19T03:20:45.724Z,100198.91
2023-01-19T03:23:13.133Z,100185.19
2023-01-19T03:25:43.284Z,100205.91
2023-01-19T03:28:10.123Z,100195.31
2023-01-19T03:30:42.318Z,100203.50
2023-01-19T03:33:13.216Z,100200.84
2023-01-19T03:35:41.967Z,100216.50
2023-01-19T03:38:12.228Z,100218.03
2023-01-19T03:40:39.071Z,100219.72
2023-01-19T03:43:05.868Z,100226.22
2023-01-19T03:45:33.581Z,100209.41
2023-01-19T03:48:00.408Z,100223.81
2023-01-19T03:50:28.586Z,100219.41
2023-01-19T03:53:11.327Z,100236.91
2023-01-19T03:55:39.305Z,100222.56
2023-01-19T03:58:06.204Z,100227.78
2023-01-19T04:00:33.307Z,100244.47
2023-01-19T04:03:00.860Z,100236.81
2023-01-19T04:05:27.884Z,100229.06
2023-01-19T04:07:55.007Z,100248.50
2023-01-19T04:10:22.005Z,100224.94
2023-01-19T04:12:48.828Z,100241.03
2023-01-19T04:15:15.645Z,100239.09
2023-01-19T04:17:42.456Z,100243.53
2023-01-19T04:20:09.864Z,100236.81
2023-01-19T04:22:36.692Z,100239.31
2023-01-19T04:25:03.627Z,100225.84
2023-01-19T04:27:30.408Z,100231.66
2023-01-19T04:29:57.184Z,100224.22
2023-01-19T04:32:24.111Z,100233.69
2023-01-19T04:34:50.940Z,100236.47
2023-01-19T04:37:17.953Z,100236.00
2023-01-19T04:39:44.745Z,100223.84
2023-01-19T04:42:11.533Z,100242.91
2023-01-19T04:44:38.325Z,100232.59
2023-01-19T04:47:05.225Z,100243.91
2023-01-19T04:49:32.113Z,100247.19
2023-01-19T04:51:59.626Z,100249.84
2023-01-19T04:54:27.703Z,100247.13
2023-01-19T04:56:54.531Z,100236.22
2023-01-19T04:59:21.626Z,100246.88
2023-01-19T05:01:48.444Z,100256.00
2023-01-19T05:04:15.545Z,100250.03
2023-01-19T05:06:42.438Z,100249.97
2023-01-19T05:09:09.262Z,100259.03
2023-01-19T05:11:36.347Z,100240.19
2023-01-19T05:14:03.130Z,100245.91
2023-01-19T05:16:29.988Z,100261.22
2023-01-19T05:18:56.907Z,100239.81
2023-01-19T05:21:23.805Z,100253.19
2023-01-19T05:23:50.614Z,100256.16
2023-01-19T05:26:17.387Z,100263.28
2023-01-19T05:28:44.205Z,100269.09
2023-01-19T05:31:11.069Z,100262.91
2023-01-19T05:33:37.950Z,100274.97
2023-01-19T05:36:04.927Z,100256.66
2023-01-19T05:38:35.757Z,100261.19
2023-01-19T05:41:02.974Z,100247.13
2023-01-19T05:43:29.760Z,100259.91
2023-01-19T05:45:56.786Z,100268.81
2023-01-19T05:48:23.665Z,100280.06
2023-01-19T05:50:51.349Z,100285.31
2023-01-19T05:53:18.132Z,100286.97
2023-01-19T05:55:45.040Z,100292.94
2023-01-19T05:58:11.884Z,100291.38
2023-01-19T06:00:38.654Z,100286.66
2023-01-19T06:03:06.714Z,100275.03
2023-01-19T06:05:34.113Z,100276.78
2023-01-19T06:08:01.454Z,100292.25
2023-01-19T06:10:28.288Z,100296.47
2023-01-19T06:12:55.090Z,100298.41
2023-01-19T06:15:23.000Z,100308.47
2023-01-19T06:17:49.803Z,100313.50
2023-01-19T06:20:16.973Z,100310.13
2023-01-19T06:22:43.871Z,100318.28
2023-01-19T06:25:10.749Z,100318.28
2023-01-19T06:27:37.669Z,100320.28
2023-01-19T06:30:06.576Z,100317.13
2023-01-19T06:32:33.406Z,100311.31
2023-01-19T06:35:00.359Z,100327.94
2023-01-19T06:37:28.630Z,100323.16
2023-01-19T06:39:55.484Z,100323.22
2023-01-19T06:42:22.257Z,100327.53
2023-01-19T06:44:49.410Z,100325.56
2023-01-19T06:47:16.680Z,100331.41
2023-01-19T06:49:43.671Z,100323.72
2023-01-19T06:52:11.581Z,100330.91
2023-01-19T06:54:38.409Z,100326.63
2023-01-19T06:57:05.277Z,100338.34
2023-01-19T06:59:32.144Z,100334.13
2023-01-19T07:01:59.260Z,100345.34
2023-01-19T07:04:27.173Z,100361.06
2023-01-19T07:06:53.991Z,100353.22
2023-01-19T07:09:20.833Z,100367.81
2023-01-19T07:11:48.456Z,100365.03
2023-01-19T07:14:15.727Z,100379.84
2023-01-19T07:16:42.781Z,100369.78
2023-01-19T07:19:10.861Z,100395.09
2023-01-19T07:21:37.726Z,100400.59
2023-01-19T07:24:04.627Z,100408.38
2023-01-19T07:26:31.483Z,100410.03
2023-01-19T07:28:58.281Z,100430.97
2023-01-19T07:31:25.351Z,100439.34
2023-01-19T07:33:52.246Z,100438.44
2023-01-19T07:36:19.023Z,100452.81
2023-01-19T07:38:45.831Z,100457.28
2023-01-19T07:41:12.651Z,100441.59
2023-01-19T07:43:39.521Z,100460.63
2023-01-19T07:46:08.248Z,100468.00
2023-01-19T07:48:35.154Z,100464.81
2023-01-19T07:51:05.955Z,100481.97
2023-01-19T07:53:32.999Z,100488.19
2023-01-19T07:55:59.849Z,100487.94
2023-01-19T07:58:26.742Z,100492.53
2023-01-19T08:00:53.744Z,100485.09
2023-01-19T08:03:20.656Z,100479.28
2023-01-19T08:05:50.684Z,100484.78
2023-01-19T08:08:18.385Z,100493.66
2023-01-19T08:10:45.301Z,100489.03
2023-01-19T08:13:12.247Z,100479.13
2023-01-19T08:15:39.074Z,100481.19
2023-01-19T08:18:06.966Z,100472.03
2023-01-19T08:20:33.724Z,100483.28
2023-01-19T08:23:01.618Z,100490.34
2023-01-19T08:25:36.379Z,100494.41
2023-01-19T08:28:04.059Z,100504.19
2023-01-19T08:30:30.968Z,100499.13
2023-01-19T08:33:04.273Z,100498.91
2023-01-19T08:35:31.921Z,100504.31
2023-01-19T08:38:01.416Z,100501.06
2023-01-19T08:40:34.785Z,100495.09
2023-01-19T08:43:04.906Z,100516.72
2023-01-19T08:45:31.734Z,100507.75
2023-01-19T08:48:01.611Z,100510.75
2023-01-19T08:50:31.945Z,100522.38
2023-01-19T08:53:03.215Z,100512.69
2023-01-19T08:55:30.380Z,100519.84
2023-01-19T08:57:58.234Z,100515.09
2023-01-19T09:00:25.566Z,100521.16
2023-01-19T09:02:52.531Z,100514.06
2023-01-19T09:05:19.560Z,100502.69
2023-01-19T09:07:48.126Z,100512.59
2023-01-19T09:10:15.636Z,100517.56
2023-01-19T09:12:43.578Z,100513.81
2023-01-19T09:15:10.989Z,100510.94
2023-01-19T09:17:37.994Z,100519.34
2023-01-19T09:20:06.090Z,100521.31
2023-01-19T09:22:33.567Z,100511.38
2023-01-19T09:25:00.463Z,100506.75
2023-01-19T09:27:27.274Z,100520.59
2023-01-19T09:29:54.187Z,100522.44
2023-01-19T09:32:21.426Z,100519.78
2023-01-19T09:34:48.347Z,100514.44
2023-01-19T09:37:17.815Z,100525.94
2023-01-19T09:39:44.610Z,100525.50
2023-01-19T09:42:40.929Z,100519.97
2023-01-19T09:45:12.216Z,100526.59
2023-01-19T09:47:39.154Z,100520.78
2023-01-19T09:50:18.046Z,100531.88
2023-01-19T09:52:54.664Z,100532.06
2023-01-19T09:55:25.555Z,100526.41
2023-01-19T09:57:52.886Z,100523.56
2023-01-19T10:00:19.865Z,100524.53
2023-01-19T10:02:53.274Z,100504.88
2023-01-19T10:05:26.294Z,100522.31
2023-01-19T10:08:03.950Z,100527.13
2023-01-19T10:10:33.754Z,100518.72
2023-01-19T10:13:19.208Z,100521.19
2023-01-19T10:15:46.637Z,100518.88
2023-01-19T10:18:48.248Z,100519.34
2023-01-19T10:21:16.791Z,100508.25
2023-01-19T10:23:51.364Z,100516.19
2023-01-19T10:26:25.331Z,100515.50
2023-01-19T10:28:55.585Z,100510.75
2023-01-19T10:31:23.733Z,100494.00
2023-01-19T10:33:52.391Z,100501.00
2023-01-19T10:36:38.778Z,100499.97
2023-01-19T10:39:05.905Z,100510.41
2023-01-19T10:41:52.407Z,100508.19
2023-01-19T10:44:29.600Z,100498.53
2023-01-19T10:46:57.629Z,100493.78
2023-01-19T10:49:36.066Z,100494.16
2023-01-19T10:52:03.029Z,100489.75
2023-01-19T10:54:30.647Z,100483.97
2023-01-19T10:57:08.359Z,100478.19
2023-01-19T10:59:38.290Z,100480.16
2023-01-19T11:02:21.721Z,100485.13
2023-01-19T11:04:50.435Z,100483.25
2023-01-19T11:07:23.956Z,100485.50
2023-01-19T11:09:50.991Z,100495.22
2023-01-19T11:12:22.308Z,100482.56
2023-01-19T11:14:50.633Z,100486.41
2023-01-19T11:17:25.340Z,100480.31
2023-01-19T11:19:56.845Z,100489.25
2023-01-19T11:22:27.064Z,100479.34
2023-01-19T11:24:57.464Z,100487.13
2023-01-19T11:27:24.322Z,100490.28
2023-01-19T11:30:01.585Z,100493.25
2023-01-19T11:32:28.418Z,100479.88
2023-01-19T11:34:55.305Z,100493.97
2023-01-19T11:37:29.729Z,100490.72
2023-01-19T11:39:58.271Z,100490.53
2023-01-19T11:42:25.311Z,100484.97
2023-01-19T11:44:58.057Z,100493.53
2023-01-19T11:47:33.746Z,100491.78
2023-01-19T11:50:22.370Z,100489.66
2023-01-19T11:53:01.564Z,100491.78
2023-01-19T11:55:51.879Z,100494.56
2023-01-19T11:58:19.234Z,100491.47
2023-01-19T12:01:05.647Z,100496.81
2023-01-19T12:04:05.062Z,100490.41
2023-01-19T12:06:33.925Z,100494.59
2023-01-19T12:09:06.209Z,100497.44
2023-01-19T12:11:40.086Z,100495.41
2023-01-19T12:14:11.955Z,100492.69
2023-01-19T12:16:38.864Z,100481.44
2023-01-19T12:19:10.964Z,100482.38
2023-01-19T12:21:38.016Z,100477.91
2023-01-19T12:24:23.881Z,100471.03
2023-01-19T12:26:56.439Z,100470.91
2023-01-19T12:29:34.223Z,100472.50
2023-01-19T12:32:20.310Z,100482.31
2023-01-19T12:34:51.971Z,100490.97
2023-01-19T12:37:39.365Z,100496.66
2023-01-19T12:40:26.806Z,100497.56
2023-01-19T12:43:04.580Z,100489.53
2023-01-19T12:45:39.873Z,100486.78
2023-01-19T12:48:13.791Z,100492.63
2023-01-19T12:50:40.599Z,100488.06
2023-01-19T12:53:17.389Z,100495.63
2023-01-19T12:55:46.978Z,100499.47
2023-01-19T12:58:20.632Z,100505.19
2023-01-19T13:00:48.301Z,100491.59
2023-01-19T13:03:18.037Z,100501.34
2023-01-19T13:05:44.746Z,100500.09
2023-01-19T13:08:14.213Z,100503.28
2023-01-19T13:10:59.900Z,100507.53
2023-01-19T13:13:36.504Z,100500.91
2023-01-19T13:16:22.477Z,100504.81
2023-01-19T13:18:56.181Z,100502.81
2023-01-19T13:21:32.923Z,100505.72
2023-01-19T13:24:01.586Z,100509.69
2023-01-19T13:26:31.099Z,100505.63
2023-01-19T13:29:02.961Z,100510.56
2023-01-19T13:31:34.735Z,100498.38
2023-01-19T13:34:01.965Z,100494.25
2023-01-19T13:36:32.529Z,100511.13
2023-01-19T13:39:01.120Z,100495.16
2023-01-19T13:41:36.448Z,100495.09
2023-01-19T13:44:39.386Z,100502.06
2023-01-19T13:47:08.025Z,100496.50
2023-01-19T13:49:39.447Z,100507.16
2023-01-19T13:52:25.871Z,100507.22
2023-01-19T13:55:00.544Z,100499.16
2023-01-19T13:57:29.846Z,100506.16
2023-01-19T14:00:21.520Z,100511.75
2023-01-19T14:03:02.790Z,100498.69
2023-01-19T14:05:34.453Z,100506.25
2023-01-19T14:08:03.938Z,100517.03
2023-01-19T14:10:33.769Z,100513.50
2023-01-19T14:13:01.888Z,100520.56
2023-01-19T14:15:29.645Z,100517.25
2023-01-19T14:18:17.894Z,100527.59
2023-01-19T14:21:03.426Z,100531.00
2023-01-19T14:23:44.887Z,100510.94
2023-01-19T14:26:46.819Z,100526.97
2023-01-19T14:29:39.444Z,100524.69
2023-01-19T14:32:25.338Z,100525.69
2023-01-19T14:35:12.520Z,100530.75
2023-01-19T14:37:47.312Z,100517.50
2023-01-19T14:40:21.755Z,100532.84
2023-01-19T14:43:00.212Z,100539.84
2023-01-19T14:45:27.207Z,100536.34
2023-01-19T14:48:12.178Z,100535.81
2023-01-19T14:50:42.800Z,100540.16
2023-01-19T14:53:28.545Z,100542.75
2023-01-19T14:56:05.123Z,100537.88
2023-01-19T14:58:33.435Z,100546.47
2023-01-19T15:01:00.539Z,100540.72
2023-01-19T15:03:43.348Z,100534.09
2023-01-19T15:06:14.535Z,100548.59
2023-01-19T15:08:41.307Z,100553.03
2023-01-19T15:11:18.413Z,100546.50
2023-01-19T15:13:45.264Z,100558.50
2023-01-19T15:16:12.215Z,100553.63
2023-01-19T15:18:39.067Z,100554.53
2023-01-19T15:21:06.056Z,100552.88
2023-01-19T15:23:33.212Z,100549.78
2023-01-19T15:26:00.979Z,100552.16
2023-01-19T15:28:27.967Z,100538.88
2023-01-19T15:30:54.840Z,100561.66
2023-01-19T15:33:23.249Z,100551.78
2023-01-19T15:35:50.361Z,100569.50
2023-01-19T15:38:17.155Z,100563.91
2023-01-19T15:40:43.974Z,100548.31
2023-01-19T15:43:11.308Z,100554.34
2023-01-19T15:45:38.722Z,100574.34
2023-01-19T15:48:10.625Z,100571.94
2023-01-19T15:50:42.156Z,100563.75
2023-01-19T15:53:16.308Z,100570.38
2023-01-19T15:55:43.468Z,100577.19
2023-01-19T15:58:13.859Z,100567.44
2023-01-19T16:00:40.991Z,100582.56
2023-01-19T16:03:07.924Z,100577.47
2023-01-19T16:05:42.826Z,100572.63
2023-01-19T16:08:11.307Z,100582.13
2023-01-19T16:10:38.209Z,100578.25
2023-01-19T16:13:05.530Z,100588.59
2023-01-19T16:15:34.973Z,100587.72
2023-01-19T16:18:02.207Z,100592.25
2023-01-19T16:20:29.164Z,100595.78
2023-01-19T16:22:58.573Z,100585.91
2023-01-19T16:25:33.032Z,100596.25
2023-01-19T16:27:59.850Z,100599.66
2023-01-19T16:30:26.722Z,100592.25
2023-01-19T16:32:53.525Z,100590.25
2023-01-19T16:35:20.469Z,100592.44
2023-01-19T16:37:50.636Z,100599.75
2023-01-19T16:40:17.567Z,100588.31
2023-01-19T16:42:47.365Z,100600.81
2023-01-19T16:45:14.169Z,100584.81
2023-01-19T16:47:41.190Z,100590.59
2023-01-19T16:50:11.450Z,100579.25
2023-01-19T16:52:38.861Z,100588.06
2023-01-19T16:55:09.438Z,100603.72
2023-01-19T16:57:39.669Z,100595.66
2023-01-19T17:00:07.431Z,100600.59
2023-01-19T17:02:34.274Z,100596.09
2023-01-19T17:05:01.087Z,100598.09
2023-01-19T17:07:28.321Z,100606.84
2023-01-19T17:09:55.401Z,100612.41
2023-01-19T17:12:22.295Z,100612.88
2023-01-19T17:14:49.169Z,100613.38
2023-01-19T17:17:15.998Z,100626.72
2023-01-19T17:19:42.942Z,100611.06
2023-01-19T17:22:09.785Z,100616.44
2023-01-19T17:24:36.663Z,100620.91
2023-01-19T17:27:03.521Z,100602.94
2023-01-19T17:29:30.384Z,100616.06
2023-01-19T17:31:57.185Z,100619.84
2023-01-19T17:34:23.978Z,100609.53
2023-01-19T17:36:51.147Z,100602.72
2023-01-19T17:39:18.659Z,100615.00
2023-01-19T17:41:45.461Z,100624.16
2023-01-19T17:44:12.285Z,100621.22
2023-01-19T17:46:39.170Z,100622.22
2023-01-19T17:49:07.199Z,100624.25
2023-01-19T17:51:34.037Z,100625.94
2023-01-19T17:54:00.948Z,100622.59
2023-01-19T17:56:30.337Z,100634.88
2023-01-19T17:58:57.678Z,100631.28
2023-01-19T18:01:28.828Z,100631.19
2023-01-19T18:03:56.111Z,100634.41
2023-01-19T18:06:23.218Z,100629.25
2023-01-19T18:08:50.123Z,100633.50
2023-01-19T18:11:17.912Z,100629.81
2023-01-19T18:13:45.385Z,100618.84
2023-01-19T18:16:14.361Z,100636.28
2023-01-19T18:18:41.420Z,100630.19
2023-01-19T18:21:10.067Z,100631.00
2023-01-19T18:23:36.946Z,100629.25
2023-01-19T18:26:08.749Z,100639.34
2023-01-19T18:28:35.619Z,100636.66
2023-01-19T18:31:02.923Z,100639.06
2023-01-19T18:33:31.429Z,100643.28
2023-01-19T18:35:58.178Z,100641.91
2023-01-19T18:38:25.023Z,100643.75
2023-01-19T18:41:05.586Z,100658.78
2023-01-19T18:43:32.412Z,100651.78
2023-01-19T18:45:59.197Z,100656.66
2023-01-19T18:48:26.121Z,100625.84
2023-01-19T18:50:52.870Z,100653.25
2023-01-19T18:53:19.809Z,100657.31
2023-01-19T18:55:53.575Z,100656.41
2023-01-19T18:58:20.468Z,100648.66
2023-01-19T19:00:47.612Z,100647.63
2023-01-19T19:03:14.519Z,100650.13
2023-01-19T19:05:41.378Z,100645.78
2023-01-19T19:08:08.217Z,100649.09
2023-01-19T19:10:35.207Z,100650.97
2023-01-19T19:13:02.050Z,100649.09
2023-01-19T19:15:28.965Z,100656.59
2023-01-19T19:17:55.704Z,100652.44
2023-01-19T19:20:23.507Z,100655.00
2023-01-19T19:22:50.544Z,100655.75
2023-01-19T19:25:17.846Z,100662.69
2023-01-19T19:27:47.785Z,100655.00
2023-01-19T19:30:15.393Z,100655.84
2023-01-19T19:32:42.351Z,100661.75
2023-01-19T19:35:11.296Z,100668.50
2023-01-19T19:37:38.258Z,100655.13
2023-01-19T19:40:05.356Z,100664.16
2023-01-19T19:42:32.220Z,100674.50
2023-01-19T19:44:59.019Z,100653.38
2023-01-19T19:47:26.377Z,100654.00
2023-01-19T19:49:54.708Z,100655.66
2023-01-19T19:52:21.474Z,100660.94
2023-01-19T19:54:48.807Z,100669.97
2023-01-19T19:57:15.621Z,100663.22
2023-01-19T19:59:42.380Z,100653.91
2023-01-19T20:02:09.947Z,100657.78
2023-01-19T20:04:36.773Z,100650.31
2023-01-19T20:07:03.628Z,100658.88
2023-01-19T20:09:30.449Z,100654.84
2023-01-19T20:11:57.254Z,100651.25
2023-01-19T20:14:24.067Z,100654.53
2023-01-19T20:16:50.957Z,100658.88
2023-01-19T20:19:18.367Z,100659.25
2023-01-19T20:21:45.238Z,100646.50
2023-01-19T20:24:19.046Z,100658.59
2023-01-19T20:26:50.501Z,100655.47
2023-01-19T20:29:17.416Z,100657.59
2023-01-19T20:31:52.716Z,100662.88
2023-01-19T20:34:20.819Z,100656.59
2023-01-19T20:36:49.916Z,100675.03
2023-01-19T20:39:17.601Z,100661.16
2023-01-19T20:41:45.171Z,100677.41
2023-01-19T20:44:25.297Z,100671.19
2023-01-19T20:46:52.452Z,100677.22
2023-01-19T20:49:19.321Z,100674.97
2023-01-19T20:51:47.066Z,100670.91
2023-01-19T20:54:15.215Z,100676.91
2023-01-19T20:56:42.020Z,100678.72
2023-01-19T20:59:09.835Z,100674.66
2023-01-19T21:01:36.996Z,100675.50
2023-01-19T21:04:04.509Z,100685.75
2023-01-19T21:06:31.414Z,100679.94
2023-01-19T21:08:58.216Z,100689.97
2023-01-19T21:11:25.255Z,100693.56
2023-01-19T21:13:56.027Z,100688.41
2023-01-19T21:16:24.521Z,100688.22
2023-01-19T21:18:51.397Z,100682.41
2023-01-19T21:21:29.765Z,100687.22
2023-01-19T21:23:58.163Z,100704.28
2023-01-19T21:26:25.134Z,100704.84
2023-01-19T21:28:52.006Z,100694.69
2023-01-19T21:31:18.863Z,100693.69
2023-01-19T21:33:45.726Z,100701.94
2023-01-19T21:36:12.616Z,100701.19
2023-01-19T21:38:39.457Z,100695.09
2023-01-19T21:41:11.839Z,100705.16
2023-01-19T21:43:40.995Z,100707.75
2023-01-19T21:46:12.841Z,100705.06
2023-01-19T21:48:40.611Z,100713.41
2023-01-19T21:51:07.493Z,100706.53
2023-01-19T21:53:34.328Z,100706.72
2023-01-19T21:56:01.186Z,100710.59
2023-01-19T21:58:28.083Z,100713.13
2023-01-19T22:01:01.971Z,100718.19
2023-01-19T22:03:29.083Z,100714.78
2023-01-19T22:05:58.931Z,100714.69
2023-01-19T22:08:25.876Z,100723.00
2023-01-19T22:10:52.656Z,100728.00
2023-01-19T22:13:19.452Z,100725.41
2023-01-19T22:15:46.195Z,100721.25
2023-01-19T22:18:13.091Z,100738.22
2023-01-19T22:20:39.986Z,100730.00
2023-01-19T22:23:06.875Z,100741.00
2023-01-19T22:25:33.941Z,100724.94
2023-01-19T22:28:00.777Z,100731.69
2023-01-19T22:30:27.766Z,100730.94
2023-01-19T22:32:54.691Z,100731.84
2023-01-19T22:35:21.468Z,100724.19
2023-01-19T22:37:48.269Z,100743.50
2023-01-19T22:40:15.303Z,100744.78
2023-01-19T22:42:45.970Z,100749.75
2023-01-19T22:45:13.358Z,100749.94
2023-01-19T22:47:40.267Z,100739.03
2023-01-19T22:50:08.127Z,100746.75
2023-01-19T22:52:34.927Z,100749.09
2023-01-19T22:55:01.759Z,100750.09
2023-01-19T22:57:28.548Z,100759.50
2023-01-19T22:59:55.309Z,100763.94
2023-01-19T23:02:22.185Z,100758.19
2023-01-19T23:04:49.026Z,100758.47
2023-01-19T23:07:15.829Z,100764.41
2023-01-19T23:09:42.655Z,100758.66
2023-01-19T23:12:09.462Z,100764.91
2023-01-19T23:14:36.392Z,100776.75
2023-01-19T23:17:03.262Z,100773.53
2023-01-19T23:19:30.056Z,100756.13
2023-01-19T23:21:56.913Z,100776.84
2023-01-19T23:24:23.690Z,100778.44
2023-01-19T23:26:50.698Z,100764.44
2023-01-19T23:29:18.068Z,100768.97
2023-01-19T23:31:46.697Z,100784.38
2023-01-19T23:34:14.011Z,100779.50
2023-01-19T23:36:41.429Z,100786.09
2023-01-19T23:39:16.577Z,100780.50
2023-01-19T23:41:43.462Z,100779.38
2023-01-19T23:44:10.315Z,100794.34
2023-01-19T23:46:37.309Z,100780.63
2023-01-19T23:49:04.367Z,100782.78
2023-01-19T23:51:31.756Z,100795.16
2023-01-19T23:53:58.925Z,100787.22
2023-01-19T23:56:27.468Z,100805.41
2023-01-19T23:58:58.666Z,100801.81
